sensor_id;sensor_type;location;lat;lon;timestamp;temperature;humidity
22098;DHT22;11215;51.938;8.464;2022-07-09T00:00:06;22.90;56.10
22098;DHT22;11215;51.938;8.464;2022-07-09T00:02:32;22.90;56.10
22098;DHT22;11215;51.938;8.464;2022-07-09T00:05:00;22.80;56.10
22098;DHT22;11215;51.938;8.464;2022-07-09T00:07:25;22.80;56.20
22098;DHT22;11215;51.938;8.464;2022-07-09T00:09:52;22.80;56.90
22098;DHT22;11215;51.938;8.464;2022-07-09T00:12:18;22.80;56.30
22098;DHT22;11215;51.938;8.464;2022-07-09T00:14:44;22.80;56.30
22098;DHT22;11215;51.938;8.464;2022-07-09T00:17:10;22.70;56.30
22098;DHT22;11215;51.938;8.464;2022-07-09T00:19:36;22.70;56.30
22098;DHT22;11215;51.938;8.464;2022-07-09T00:22:01;22.70;56.30
22098;DHT22;11215;51.938;8.464;2022-07-09T00:24:27;22.70;56.40
22098;DHT22;11215;51.938;8.464;2022-07-09T00:26:53;22.60;56.40
22098;DHT22;11215;51.938;8.464;2022-07-09T00:29:18;22.60;56.40
22098;DHT22;11215;51.938;8.464;2022-07-09T00:31:44;22.60;56.30
22098;DHT22;11215;51.938;8.464;2022-07-09T00:34:12;22.60;56.30
22098;DHT22;11215;51.938;8.464;2022-07-09T00:36:38;22.50;56.60
22098;DHT22;11215;51.938;8.464;2022-07-09T00:39:07;22.50;56.40
22098;DHT22;11215;51.938;8.464;2022-07-09T00:41:41;22.50;56.60
22098;DHT22;11215;51.938;8.464;2022-07-09T00:44:14;22.40;56.30
22098;DHT22;11215;51.938;8.464;2022-07-09T00:46:41;22.40;56.50
22098;DHT22;11215;51.938;8.464;2022-07-09T00:49:10;22.40;56.40
22098;DHT22;11215;51.938;8.464;2022-07-09T00:51:41;22.40;56.60
22098;DHT22;11215;51.938;8.464;2022-07-09T00:54:19;22.30;56.90
22098;DHT22;11215;51.938;8.464;2022-07-09T00:56:47;22.30;56.70
22098;DHT22;11215;51.938;8.464;2022-07-09T00:59:28;22.20;56.60
22098;DHT22;11215;51.938;8.464;2022-07-09T01:01:57;22.30;57.10
22098;DHT22;11215;51.938;8.464;2022-07-09T01:04:26;22.20;57.00
22098;DHT22;11215;51.938;8.464;2022-07-09T01:06:51;22.20;57.10
22098;DHT22;11215;51.938;8.464;2022-07-09T01:09:17;22.10;57.20
22098;DHT22;11215;51.938;8.464;2022-07-09T01:11:43;22.10;57.20
22098;DHT22;11215;51.938;8.464;2022-07-09T01:14:08;22.10;57.30
22098;DHT22;11215;51.938;8.464;2022-07-09T01:16:37;22.00;57.20
22098;DHT22;11215;51.938;8.464;2022-07-09T01:19:06;22.10;57.30
22098;DHT22;11215;51.938;8.464;2022-07-09T01:21:34;22.00;57.50
22098;DHT22;11215;51.938;8.464;2022-07-09T01:24:18;22.00;57.50
22098;DHT22;11215;51.938;8.464;2022-07-09T01:26:55;21.90;57.70
22098;DHT22;11215;51.938;8.464;2022-07-09T01:29:52;22.00;57.60
22098;DHT22;11215;51.938;8.464;2022-07-09T01:32:24;21.90;57.50
22098;DHT22;11215;51.938;8.464;2022-07-09T01:34:50;21.90;57.70
22098;DHT22;11215;51.938;8.464;2022-07-09T01:37:15;21.90;57.70
22098;DHT22;11215;51.938;8.464;2022-07-09T01:39:44;21.90;57.70
22098;DHT22;11215;51.938;8.464;2022-07-09T01:42:19;21.80;57.80
22098;DHT22;11215;51.938;8.464;2022-07-09T01:47:21;21.80;58.10
22098;DHT22;11215;51.938;8.464;2022-07-09T01:49:47;21.70;57.70
22098;DHT22;11215;51.938;8.464;2022-07-09T01:52:17;21.70;57.80
22098;DHT22;11215;51.938;8.464;2022-07-09T01:54:43;21.70;58.20
22098;DHT22;11215;51.938;8.464;2022-07-09T01:57:08;21.70;58.30
22098;DHT22;11215;51.938;8.464;2022-07-09T01:59:34;21.60;58.50
22098;DHT22;11215;51.938;8.464;2022-07-09T02:01:59;21.60;58.60
22098;DHT22;11215;51.938;8.464;2022-07-09T02:04:26;21.60;58.70
22098;DHT22;11215;51.938;8.464;2022-07-09T02:06:51;21.60;58.80
22098;DHT22;11215;51.938;8.464;2022-07-09T02:09:17;21.50;58.90
22098;DHT22;11215;51.938;8.464;2022-07-09T02:11:43;21.50;59.00
22098;DHT22;11215;51.938;8.464;2022-07-09T02:14:08;21.50;59.20
22098;DHT22;11215;51.938;8.464;2022-07-09T02:16:34;21.50;59.30
22098;DHT22;11215;51.938;8.464;2022-07-09T02:18:59;21.50;59.40
22098;DHT22;11215;51.938;8.464;2022-07-09T02:21:25;21.50;59.50
22098;DHT22;11215;51.938;8.464;2022-07-09T02:23:51;21.50;59.60
22098;DHT22;11215;51.938;8.464;2022-07-09T02:26:18;21.40;59.60
22098;DHT22;11215;51.938;8.464;2022-07-09T02:28:43;21.40;59.70
22098;DHT22;11215;51.938;8.464;2022-07-09T02:31:09;21.40;59.70
22098;DHT22;11215;51.938;8.464;2022-07-09T02:33:35;21.40;59.80
22098;DHT22;11215;51.938;8.464;2022-07-09T02:36:00;21.40;59.90
22098;DHT22;11215;51.938;8.464;2022-07-09T02:38:26;21.40;60.10
22098;DHT22;11215;51.938;8.464;2022-07-09T02:40:52;21.40;60.00
22098;DHT22;11215;51.938;8.464;2022-07-09T02:43:17;21.30;60.00
22098;DHT22;11215;51.938;8.464;2022-07-09T02:45:48;21.30;60.00
22098;DHT22;11215;51.938;8.464;2022-07-09T02:48:21;21.30;60.10
22098;DHT22;11215;51.938;8.464;2022-07-09T02:50:53;21.30;60.30
22098;DHT22;11215;51.938;8.464;2022-07-09T02:53:25;21.30;60.20
22098;DHT22;11215;51.938;8.464;2022-07-09T02:55:51;21.30;60.30
22098;DHT22;11215;51.938;8.464;2022-07-09T02:58:16;21.20;60.50
22098;DHT22;11215;51.938;8.464;2022-07-09T03:00:42;21.20;60.60
22098;DHT22;11215;51.938;8.464;2022-07-09T03:03:08;21.30;60.90
22098;DHT22;11215;51.938;8.464;2022-07-09T03:05:34;21.20;60.90
22098;DHT22;11215;51.938;8.464;2022-07-09T03:08:01;21.30;61.10
22098;DHT22;11215;51.938;8.464;2022-07-09T03:10:27;21.20;61.10
22098;DHT22;11215;51.938;8.464;2022-07-09T03:12:53;21.20;61.10
22098;DHT22;11215;51.938;8.464;2022-07-09T03:15:19;21.20;61.20
22098;DHT22;11215;51.938;8.464;2022-07-09T03:17:45;21.20;61.40
22098;DHT22;11215;51.938;8.464;2022-07-09T03:20:12;21.20;61.50
22098;DHT22;11215;51.938;8.464;2022-07-09T03:22:38;21.20;61.50
22098;DHT22;11215;51.938;8.464;2022-07-09T03:25:04;21.20;62.40
22098;DHT22;11215;51.938;8.464;2022-07-09T03:27:31;21.20;61.70
22098;DHT22;11215;51.938;8.464;2022-07-09T03:29:56;21.20;61.70
22098;DHT22;11215;51.938;8.464;2022-07-09T03:32:22;21.10;61.70
22098;DHT22;11215;51.938;8.464;2022-07-09T03:34:48;21.20;61.90
22098;DHT22;11215;51.938;8.464;2022-07-09T03:37:14;21.20;62.00
22098;DHT22;11215;51.938;8.464;2022-07-09T03:39:40;21.20;62.00
22098;DHT22;11215;51.938;8.464;2022-07-09T03:42:05;21.10;62.00
22098;DHT22;11215;51.938;8.464;2022-07-09T03:44:35;21.10;62.00
22098;DHT22;11215;51.938;8.464;2022-07-09T03:47:01;21.10;62.30
22098;DHT22;11215;51.938;8.464;2022-07-09T03:49:27;21.10;62.00
22098;DHT22;11215;51.938;8.464;2022-07-09T03:51:53;21.10;62.10
22098;DHT22;11215;51.938;8.464;2022-07-09T03:54:21;21.10;62.20
22098;DHT22;11215;51.938;8.464;2022-07-09T03:56:47;21.10;62.40
22098;DHT22;11215;51.938;8.464;2022-07-09T03:59:12;21.00;62.40
22098;DHT22;11215;51.938;8.464;2022-07-09T04:01:38;21.00;62.70
22098;DHT22;11215;51.938;8.464;2022-07-09T04:04:04;21.00;62.80
22098;DHT22;11215;51.938;8.464;2022-07-09T04:06:30;21.00;62.90
22098;DHT22;11215;51.938;8.464;2022-07-09T04:08:56;21.00;62.90
22098;DHT22;11215;51.938;8.464;2022-07-09T04:11:22;21.00;63.00
22098;DHT22;11215;51.938;8.464;2022-07-09T04:13:48;21.00;63.10
22098;DHT22;11215;51.938;8.464;2022-07-09T04:16:14;21.00;63.20
22098;DHT22;11215;51.938;8.464;2022-07-09T04:18:41;21.00;63.20
22098;DHT22;11215;51.938;8.464;2022-07-09T04:21:09;21.00;63.20
22098;DHT22;11215;51.938;8.464;2022-07-09T04:23:35;21.00;63.30
22098;DHT22;11215;51.938;8.464;2022-07-09T04:26:01;21.00;63.30
22098;DHT22;11215;51.938;8.464;2022-07-09T04:28:26;21.00;63.40
22098;DHT22;11215;51.938;8.464;2022-07-09T04:30:52;21.00;63.50
22098;DHT22;11215;51.938;8.464;2022-07-09T04:33:18;21.00;63.60
22098;DHT22;11215;51.938;8.464;2022-07-09T04:35:44;21.00;63.60
22098;DHT22;11215;51.938;8.464;2022-07-09T04:38:11;21.00;63.70
22098;DHT22;11215;51.938;8.464;2022-07-09T04:40:38;21.00;63.80
22098;DHT22;11215;51.938;8.464;2022-07-09T04:43:04;21.10;63.70
22098;DHT22;11215;51.938;8.464;2022-07-09T04:45:30;21.10;63.70
22098;DHT22;11215;51.938;8.464;2022-07-09T04:47:57;21.10;63.60
22098;DHT22;11215;51.938;8.464;2022-07-09T04:50:24;21.10;63.70
22098;DHT22;11215;51.938;8.464;2022-07-09T04:52:50;21.10;63.80
22098;DHT22;11215;51.938;8.464;2022-07-09T04:55:16;21.10;63.80
22098;DHT22;11215;51.938;8.464;2022-07-09T04:57:42;21.10;64.10
22098;DHT22;11215;51.938;8.464;2022-07-09T05:00:09;21.10;64.40
22098;DHT22;11215;51.938;8.464;2022-07-09T05:02:36;21.20;64.50
22098;DHT22;11215;51.938;8.464;2022-07-09T05:05:02;21.20;64.30
22098;DHT22;11215;51.938;8.464;2022-07-09T05:07:29;21.30;63.90
22098;DHT22;11215;51.938;8.464;2022-07-09T05:09:56;21.30;63.70
22098;DHT22;11215;51.938;8.464;2022-07-09T05:12:22;21.30;63.60
22098;DHT22;11215;51.938;8.464;2022-07-09T05:14:47;21.40;63.50
22098;DHT22;11215;51.938;8.464;2022-07-09T05:17:13;21.40;63.50
22098;DHT22;11215;51.938;8.464;2022-07-09T05:19:38;21.40;63.40
22098;DHT22;11215;51.938;8.464;2022-07-09T05:22:04;21.30;63.20
22098;DHT22;11215;51.938;8.464;2022-07-09T05:24:30;21.40;63.20
22098;DHT22;11215;51.938;8.464;2022-07-09T05:26:55;21.30;63.10
22098;DHT22;11215;51.938;8.464;2022-07-09T05:29:21;21.30;62.90
22098;DHT22;11215;51.938;8.464;2022-07-09T05:31:48;21.30;62.90
22098;DHT22;11215;51.938;8.464;2022-07-09T05:34:15;21.20;62.90
22098;DHT22;11215;51.938;8.464;2022-07-09T05:36:40;21.20;62.90
22098;DHT22;11215;51.938;8.464;2022-07-09T05:39:06;21.20;63.00
22098;DHT22;11215;51.938;8.464;2022-07-09T05:41:33;21.20;63.10
22098;DHT22;11215;51.938;8.464;2022-07-09T05:43:58;21.20;63.30
22098;DHT22;11215;51.938;8.464;2022-07-09T05:46:24;21.10;63.30
22098;DHT22;11215;51.938;8.464;2022-07-09T05:48:50;21.10;63.40
22098;DHT22;11215;51.938;8.464;2022-07-09T05:51:16;21.10;63.40
22098;DHT22;11215;51.938;8.464;2022-07-09T05:53:42;21.10;63.30
22098;DHT22;11215;51.938;8.464;2022-07-09T05:56:07;21.10;63.50
22098;DHT22;11215;51.938;8.464;2022-07-09T05:58:33;21.10;63.50
22098;DHT22;11215;51.938;8.464;2022-07-09T06:00:59;21.10;63.50
22098;DHT22;11215;51.938;8.464;2022-07-09T06:03:24;21.10;63.50
22098;DHT22;11215;51.938;8.464;2022-07-09T06:05:50;21.10;63.60
22098;DHT22;11215;51.938;8.464;2022-07-09T06:08:15;21.10;63.60
22098;DHT22;11215;51.938;8.464;2022-07-09T06:10:41;21.10;63.50
22098;DHT22;11215;51.938;8.464;2022-07-09T06:13:07;21.10;63.50
22098;DHT22;11215;51.938;8.464;2022-07-09T06:15:33;21.10;63.50
22098;DHT22;11215;51.938;8.464;2022-07-09T06:17:59;21.10;63.50
22098;DHT22;11215;51.938;8.464;2022-07-09T06:20:24;21.10;63.50
22098;DHT22;11215;51.938;8.464;2022-07-09T06:22:50;21.10;63.60
22098;DHT22;11215;51.938;8.464;2022-07-09T06:25:15;21.10;63.60
22098;DHT22;11215;51.938;8.464;2022-07-09T06:27:41;21.10;63.50
22098;DHT22;11215;51.938;8.464;2022-07-09T06:30:07;21.10;63.50
22098;DHT22;11215;51.938;8.464;2022-07-09T06:32:34;21.10;63.50
22098;DHT22;11215;51.938;8.464;2022-07-09T06:35:00;21.10;63.60
22098;DHT22;11215;51.938;8.464;2022-07-09T06:37:25;21.20;63.70
22098;DHT22;11215;51.938;8.464;2022-07-09T06:39:51;21.20;63.80
22098;DHT22;11215;51.938;8.464;2022-07-09T06:42:21;21.20;63.70
22098;DHT22;11215;51.938;8.464;2022-07-09T06:44:47;21.30;63.60
22098;DHT22;11215;51.938;8.464;2022-07-09T06:47:12;21.30;63.30
22098;DHT22;11215;51.938;8.464;2022-07-09T06:49:38;21.30;63.10
22098;DHT22;11215;51.938;8.464;2022-07-09T06:52:04;21.40;63.10
22098;DHT22;11215;51.938;8.464;2022-07-09T06:54:30;21.40;63.00
22098;DHT22;11215;51.938;8.464;2022-07-09T06:56:56;21.40;62.80
22098;DHT22;11215;51.938;8.464;2022-07-09T06:59:25;21.50;62.80
22098;DHT22;11215;51.938;8.464;2022-07-09T07:01:50;21.50;62.80
22098;DHT22;11215;51.938;8.464;2022-07-09T07:04:16;21.50;62.80
22098;DHT22;11215;51.938;8.464;2022-07-09T07:06:42;21.50;62.80
22098;DHT22;11215;51.938;8.464;2022-07-09T07:09:08;21.60;62.60
22098;DHT22;11215;51.938;8.464;2022-07-09T07:11:34;21.60;62.40
22098;DHT22;11215;51.938;8.464;2022-07-09T07:14:00;21.60;62.40
22098;DHT22;11215;51.938;8.464;2022-07-09T07:16:25;21.70;62.20
22098;DHT22;11215;51.938;8.464;2022-07-09T07:18:51;21.70;62.20
22098;DHT22;11215;51.938;8.464;2022-07-09T07:21:17;21.80;62.30
22098;DHT22;11215;51.938;8.464;2022-07-09T07:23:43;21.80;62.20
22098;DHT22;11215;51.938;8.464;2022-07-09T07:26:08;21.90;62.30
22098;DHT22;11215;51.938;8.464;2022-07-09T07:28:34;22.00;62.40
22098;DHT22;11215;51.938;8.464;2022-07-09T07:31:00;22.00;62.00
22098;DHT22;11215;51.938;8.464;2022-07-09T07:33:25;22.10;61.70
22098;DHT22;11215;51.938;8.464;2022-07-09T07:35:51;22.20;61.40
22098;DHT22;11215;51.938;8.464;2022-07-09T07:38:16;22.20;62.00
22098;DHT22;11215;51.938;8.464;2022-07-09T07:40:42;22.20;61.40
22098;DHT22;11215;51.938;8.464;2022-07-09T07:43:10;22.30;61.40
22098;DHT22;11215;51.938;8.464;2022-07-09T07:45:36;22.40;61.30
22098;DHT22;11215;51.938;8.464;2022-07-09T07:48:02;22.50;61.10
22098;DHT22;11215;51.938;8.464;2022-07-09T07:50:28;22.50;60.60
22098;DHT22;11215;51.938;8.464;2022-07-09T07:52:53;22.60;60.30
22098;DHT22;11215;51.938;8.464;2022-07-09T07:55:19;22.60;60.30
22098;DHT22;11215;51.938;8.464;2022-07-09T07:57:45;22.70;60.00
22098;DHT22;11215;51.938;8.464;2022-07-09T08:00:11;22.70;60.00
22098;DHT22;11215;51.938;8.464;2022-07-09T08:02:36;22.80;59.90
22098;DHT22;11215;51.938;8.464;2022-07-09T08:05:02;22.80;59.70
22098;DHT22;11215;51.938;8.464;2022-07-09T08:07:28;22.90;59.70
22098;DHT22;11215;51.938;8.464;2022-07-09T08:09:53;22.90;59.70
22098;DHT22;11215;51.938;8.464;2022-07-09T08:12:19;23.00;59.60
22098;DHT22;11215;51.938;8.464;2022-07-09T08:14:45;23.00;59.30
22098;DHT22;11215;51.938;8.464;2022-07-09T08:17:10;23.10;58.80
22098;DHT22;11215;51.938;8.464;2022-07-09T08:19:36;23.20;58.60
22098;DHT22;11215;51.938;8.464;2022-07-09T08:22:02;23.20;58.50
22098;DHT22;11215;51.938;8.464;2022-07-09T08:24:28;23.30;58.50
22098;DHT22;11215;51.938;8.464;2022-07-09T08:26:54;23.30;58.40
22098;DHT22;11215;51.938;8.464;2022-07-09T08:29:19;23.30;58.30
22098;DHT22;11215;51.938;8.464;2022-07-09T08:31:45;23.40;58.30
22098;DHT22;11215;51.938;8.464;2022-07-09T08:34:11;23.40;58.20
22098;DHT22;11215;51.938;8.464;2022-07-09T08:36:36;23.40;58.00
22098;DHT22;11215;51.938;8.464;2022-07-09T08:39:02;23.50;58.00
22098;DHT22;11215;51.938;8.464;2022-07-09T08:41:28;23.50;57.90
22098;DHT22;11215;51.938;8.464;2022-07-09T08:43:54;23.50;57.60
22098;DHT22;11215;51.938;8.464;2022-07-09T08:46:20;23.60;57.50
22098;DHT22;11215;51.938;8.464;2022-07-09T08:48:46;23.50;57.40
22098;DHT22;11215;51.938;8.464;2022-07-09T08:51:12;23.60;57.40
22098;DHT22;11215;51.938;8.464;2022-07-09T08:53:42;23.60;57.50
22098;DHT22;11215;51.938;8.464;2022-07-09T08:56:09;23.60;57.50
22098;DHT22;11215;51.938;8.464;2022-07-09T08:58:37;23.50;57.80
22098;DHT22;11215;51.938;8.464;2022-07-09T09:01:03;23.50;57.90
22098;DHT22;11215;51.938;8.464;2022-07-09T09:03:29;23.60;58.30
22098;DHT22;11215;51.938;8.464;2022-07-09T09:06:03;23.60;58.20
22098;DHT22;11215;51.938;8.464;2022-07-09T09:11:04;23.60;57.60
22098;DHT22;11215;51.938;8.464;2022-07-09T09:13:31;23.70;57.50
22098;DHT22;11215;51.938;8.464;2022-07-09T09:16:06;23.70;57.40
22098;DHT22;11215;51.938;8.464;2022-07-09T09:18:52;23.70;56.90
22098;DHT22;11215;51.938;8.464;2022-07-09T09:21:20;23.70;56.40
22098;DHT22;11215;51.938;8.464;2022-07-09T09:23:48;23.70;56.70
22098;DHT22;11215;51.938;8.464;2022-07-09T09:26:19;23.70;56.80
22098;DHT22;11215;51.938;8.464;2022-07-09T09:28:58;23.70;56.90
22098;DHT22;11215;51.938;8.464;2022-07-09T09:33:54;23.70;56.80
22098;DHT22;11215;51.938;8.464;2022-07-09T09:36:34;23.70;56.60
22098;DHT22;11215;51.938;8.464;2022-07-09T09:39:25;23.70;56.10
22098;DHT22;11215;51.938;8.464;2022-07-09T09:41:58;23.70;56.10
22098;DHT22;11215;51.938;8.464;2022-07-09T09:44:27;23.70;55.80
22098;DHT22;11215;51.938;8.464;2022-07-09T09:46:55;23.60;55.90
22098;DHT22;11215;51.938;8.464;2022-07-09T09:49:21;23.60;56.00
22098;DHT22;11215;51.938;8.464;2022-07-09T09:52:07;23.60;56.20
22098;DHT22;11215;51.938;8.464;2022-07-09T09:54:35;23.60;55.80
22098;DHT22;11215;51.938;8.464;2022-07-09T09:57:05;23.70;56.20
22098;DHT22;11215;51.938;8.464;2022-07-09T09:59:37;23.70;56.10
22098;DHT22;11215;51.938;8.464;2022-07-09T10:02:05;23.70;56.10
22098;DHT22;11215;51.938;8.464;2022-07-09T10:04:32;23.70;56.20
22098;DHT22;11215;51.938;8.464;2022-07-09T10:06:58;23.70;56.00
22098;DHT22;11215;51.938;8.464;2022-07-09T10:09:24;23.70;56.00
22098;DHT22;11215;51.938;8.464;2022-07-09T10:11:50;23.80;56.10
22098;DHT22;11215;51.938;8.464;2022-07-09T10:16:52;23.80;56.30
22098;DHT22;11215;51.938;8.464;2022-07-09T10:19:30;23.90;56.30
22098;DHT22;11215;51.938;8.464;2022-07-09T10:22:00;23.90;56.10
22098;DHT22;11215;51.938;8.464;2022-07-09T10:24:33;24.00;56.30
22098;DHT22;11215;51.938;8.464;2022-07-09T10:27:03;24.10;55.90
22098;DHT22;11215;51.938;8.464;2022-07-09T10:29:29;24.10;56.00
22098;DHT22;11215;51.938;8.464;2022-07-09T10:31:56;24.20;55.80
22098;DHT22;11215;51.938;8.464;2022-07-09T10:37:04;24.30;55.60
22098;DHT22;11215;51.938;8.464;2022-07-09T10:39:30;24.40;55.70
22098;DHT22;11215;51.938;8.464;2022-07-09T10:42:00;24.50;55.70
22098;DHT22;11215;51.938;8.464;2022-07-09T10:44:47;24.50;54.80
22098;DHT22;11215;51.938;8.464;2022-07-09T10:47:15;24.60;54.50
22098;DHT22;11215;51.938;8.464;2022-07-09T10:49:40;24.70;54.70
22098;DHT22;11215;51.938;8.464;2022-07-09T10:52:07;24.80;54.50
22098;DHT22;11215;51.938;8.464;2022-07-09T10:54:33;24.80;54.50
22098;DHT22;11215;51.938;8.464;2022-07-09T10:57:00;24.90;54.10
22098;DHT22;11215;51.938;8.464;2022-07-09T10:59:26;24.90;54.00
22098;DHT22;11215;51.938;8.464;2022-07-09T11:01:52;24.90;53.90
22098;DHT22;11215;51.938;8.464;2022-07-09T11:04:28;25.00;53.90
22098;DHT22;11215;51.938;8.464;2022-07-09T11:06:54;25.00;53.80
22098;DHT22;11215;51.938;8.464;2022-07-09T11:09:20;25.00;53.60
22098;DHT22;11215;51.938;8.464;2022-07-09T11:11:46;25.10;53.70
22098;DHT22;11215;51.938;8.464;2022-07-09T11:14:15;25.20;53.80
22098;DHT22;11215;51.938;8.464;2022-07-09T11:16:41;25.20;53.40
22098;DHT22;11215;51.938;8.464;2022-07-09T11:19:14;25.30;53.10
22098;DHT22;11215;51.938;8.464;2022-07-09T11:21:39;25.30;52.40
22098;DHT22;11215;51.938;8.464;2022-07-09T11:24:18;25.50;52.70
22098;DHT22;11215;51.938;8.464;2022-07-09T11:26:45;25.50;51.60
22098;DHT22;11215;51.938;8.464;2022-07-09T11:29:12;25.50;51.90
22098;DHT22;11215;51.938;8.464;2022-07-09T11:31:46;25.50;51.90
22098;DHT22;11215;51.938;8.464;2022-07-09T11:34:12;25.50;51.10
22098;DHT22;11215;51.938;8.464;2022-07-09T11:36:40;25.50;51.60
22098;DHT22;11215;51.938;8.464;2022-07-09T11:39:06;25.50;51.60
22098;DHT22;11215;51.938;8.464;2022-07-09T11:41:44;25.50;51.40
22098;DHT22;11215;51.938;8.464;2022-07-09T11:44:10;25.50;51.00
22098;DHT22;11215;51.938;8.464;2022-07-09T11:46:39;25.50;51.60
22098;DHT22;11215;51.938;8.464;2022-07-09T11:49:14;25.60;52.00
22098;DHT22;11215;51.938;8.464;2022-07-09T11:51:41;25.70;51.40
22098;DHT22;11215;51.938;8.464;2022-07-09T11:54:07;25.80;51.60
22098;DHT22;11215;51.938;8.464;2022-07-09T11:56:45;25.80;51.20
22098;DHT22;11215;51.938;8.464;2022-07-09T11:59:11;25.90;50.40
22098;DHT22;11215;51.938;8.464;2022-07-09T12:01:37;26.00;51.10
22098;DHT22;11215;51.938;8.464;2022-07-09T12:04:04;26.00;51.20
22098;DHT22;11215;51.938;8.464;2022-07-09T12:06:30;26.10;51.10
22098;DHT22;11215;51.938;8.464;2022-07-09T12:09:03;26.20;51.00
22098;DHT22;11215;51.938;8.464;2022-07-09T12:11:30;26.30;49.70
22098;DHT22;11215;51.938;8.464;2022-07-09T12:13:56;26.40;50.30
22098;DHT22;11215;51.938;8.464;2022-07-09T12:16:22;26.40;50.00
22098;DHT22;11215;51.938;8.464;2022-07-09T12:18:48;26.50;49.70
22098;DHT22;11215;51.938;8.464;2022-07-09T12:21:13;26.60;49.10
22098;DHT22;11215;51.938;8.464;2022-07-09T12:23:39;26.70;49.10
22098;DHT22;11215;51.938;8.464;2022-07-09T12:26:04;26.70;49.10
22098;DHT22;11215;51.938;8.464;2022-07-09T12:28:30;26.80;48.50
22098;DHT22;11215;51.938;8.464;2022-07-09T12:30:59;26.80;48.20
22098;DHT22;11215;51.938;8.464;2022-07-09T12:33:45;26.90;47.70
22098;DHT22;11215;51.938;8.464;2022-07-09T12:36:21;26.90;46.70
22098;DHT22;11215;51.938;8.464;2022-07-09T12:38:55;26.90;47.20
22098;DHT22;11215;51.938;8.464;2022-07-09T12:41:25;27.00;47.30
22098;DHT22;11215;51.938;8.464;2022-07-09T12:43:59;27.10;46.60
22098;DHT22;11215;51.938;8.464;2022-07-09T12:46:25;27.10;46.60
22098;DHT22;11215;51.938;8.464;2022-07-09T12:48:51;27.10;45.90
22098;DHT22;11215;51.938;8.464;2022-07-09T12:51:19;27.10;46.10
22098;DHT22;11215;51.938;8.464;2022-07-09T12:53:49;27.20;46.60
22098;DHT22;11215;51.938;8.464;2022-07-09T12:56:26;27.20;46.40
22098;DHT22;11215;51.938;8.464;2022-07-09T12:59:13;27.30;45.90
22098;DHT22;11215;51.938;8.464;2022-07-09T13:02:09;27.30;45.20
22098;DHT22;11215;51.938;8.464;2022-07-09T13:04:50;27.40;45.20
22098;DHT22;11215;51.938;8.464;2022-07-09T13:07:26;27.40;45.30
22098;DHT22;11215;51.938;8.464;2022-07-09T13:10:02;27.40;45.10
22098;DHT22;11215;51.938;8.464;2022-07-09T13:12:47;27.50;45.10
22098;DHT22;11215;51.938;8.464;2022-07-09T13:15:15;27.50;44.60
22098;DHT22;11215;51.938;8.464;2022-07-09T13:18:06;27.50;44.80
22098;DHT22;11215;51.938;8.464;2022-07-09T13:20:32;27.50;43.50
22098;DHT22;11215;51.938;8.464;2022-07-09T13:22:58;27.50;44.50
22098;DHT22;11215;51.938;8.464;2022-07-09T13:25:36;27.60;44.40
22098;DHT22;11215;51.938;8.464;2022-07-09T13:28:07;27.60;43.60
22098;DHT22;11215;51.938;8.464;2022-07-09T13:30:40;27.70;43.70
22098;DHT22;11215;51.938;8.464;2022-07-09T13:33:19;27.70;44.30
22098;DHT22;11215;51.938;8.464;2022-07-09T13:35:55;27.80;44.40
22098;DHT22;11215;51.938;8.464;2022-07-09T13:38:44;27.90;43.50
22098;DHT22;11215;51.938;8.464;2022-07-09T13:41:13;27.90;43.60
22098;DHT22;11215;51.938;8.464;2022-07-09T13:43:45;27.90;42.80
22098;DHT22;11215;51.938;8.464;2022-07-09T13:46:20;27.90;43.50
22098;DHT22;11215;51.938;8.464;2022-07-09T13:48:49;27.90;41.80
22098;DHT22;11215;51.938;8.464;2022-07-09T13:51:27;27.90;42.20
22098;DHT22;11215;51.938;8.464;2022-07-09T13:53:55;27.90;42.60
22098;DHT22;11215;51.938;8.464;2022-07-09T13:56:31;27.90;42.90
22098;DHT22;11215;51.938;8.464;2022-07-09T13:58:57;27.80;41.80
22098;DHT22;11215;51.938;8.464;2022-07-09T14:01:41;27.90;42.80
22098;DHT22;11215;51.938;8.464;2022-07-09T14:04:20;27.90;42.90
22098;DHT22;11215;51.938;8.464;2022-07-09T14:06:49;27.80;42.60
22098;DHT22;11215;51.938;8.464;2022-07-09T14:09:45;27.90;43.10
22098;DHT22;11215;51.938;8.464;2022-07-09T14:12:17;27.80;42.60
22098;DHT22;11215;51.938;8.464;2022-07-09T14:14:50;27.80;43.20
22098;DHT22;11215;51.938;8.464;2022-07-09T14:17:28;27.80;43.60
22098;DHT22;11215;51.938;8.464;2022-07-09T14:19:57;27.80;43.20
22098;DHT22;11215;51.938;8.464;2022-07-09T14:22:34;27.80;43.60
22098;DHT22;11215;51.938;8.464;2022-07-09T14:25:08;27.80;43.30
22098;DHT22;11215;51.938;8.464;2022-07-09T14:27:39;27.70;43.00
22098;DHT22;11215;51.938;8.464;2022-07-09T14:30:21;27.70;43.40
22098;DHT22;11215;51.938;8.464;2022-07-09T14:32:53;27.70;43.00
22098;DHT22;11215;51.938;8.464;2022-07-09T14:35:25;27.70;43.20
22098;DHT22;11215;51.938;8.464;2022-07-09T14:37:56;27.70;43.40
22098;DHT22;11215;51.938;8.464;2022-07-09T14:40:30;27.60;43.50
22098;DHT22;11215;51.938;8.464;2022-07-09T14:43:04;27.70;44.10
22098;DHT22;11215;51.938;8.464;2022-07-09T14:45:31;27.70;43.30
22098;DHT22;11215;51.938;8.464;2022-07-09T14:48:18;27.70;43.60
22098;DHT22;11215;51.938;8.464;2022-07-09T14:51:02;27.70;42.80
22098;DHT22;11215;51.938;8.464;2022-07-09T14:53:39;27.70;43.20
22098;DHT22;11215;51.938;8.464;2022-07-09T14:56:08;27.70;42.70
22098;DHT22;11215;51.938;8.464;2022-07-09T14:58:37;27.80;43.00
22098;DHT22;11215;51.938;8.464;2022-07-09T15:01:14;27.80;43.20
22098;DHT22;11215;51.938;8.464;2022-07-09T15:03:40;27.80;43.00
22098;DHT22;11215;51.938;8.464;2022-07-09T15:06:17;27.80;43.40
22098;DHT22;11215;51.938;8.464;2022-07-09T15:08:43;27.80;43.30
22098;DHT22;11215;51.938;8.464;2022-07-09T15:11:10;27.90;43.50
22098;DHT22;11215;51.938;8.464;2022-07-09T15:13:35;27.90;43.30
22098;DHT22;11215;51.938;8.464;2022-07-09T15:16:01;28.00;43.00
22098;DHT22;11215;51.938;8.464;2022-07-09T15:18:27;28.00;42.70
22098;DHT22;11215;51.938;8.464;2022-07-09T15:20:53;28.00;42.80
22098;DHT22;11215;51.938;8.464;2022-07-09T15:23:18;28.10;42.40
22098;DHT22;11215;51.938;8.464;2022-07-09T15:25:44;28.10;42.10
22098;DHT22;11215;51.938;8.464;2022-07-09T15:28:09;28.10;41.60
22098;DHT22;11215;51.938;8.464;2022-07-09T15:30:38;28.10;41.40
22098;DHT22;11215;51.938;8.464;2022-07-09T15:33:10;28.10;41.20
22098;DHT22;11215;51.938;8.464;2022-07-09T15:35:38;28.10;40.40
22098;DHT22;11215;51.938;8.464;2022-07-09T15:38:21;28.10;40.70
22098;DHT22;11215;51.938;8.464;2022-07-09T15:40:47;28.10;40.00
22098;DHT22;11215;51.938;8.464;2022-07-09T15:43:13;28.10;40.40
22098;DHT22;11215;51.938;8.464;2022-07-09T15:45:38;28.10;40.80
22098;DHT22;11215;51.938;8.464;2022-07-09T15:48:10;28.10;41.00
22098;DHT22;11215;51.938;8.464;2022-07-09T15:50:36;28.20;40.50